createdAt,value
2023-02-26T00:01:43.882Z,2.50
2023-02-26T00:04:11.148Z,2.38
2023-02-26T00:06:53.093Z,2.20
2023-02-26T00:09:23.778Z,2.80
2023-02-26T00:11:51.391Z,2.85
2023-02-26T00:14:19.903Z,2.75
2023-02-26T00:17:31.874Z,2.17
2023-02-26T00:19:59.827Z,2.40
2023-02-26T00:22:27.452Z,2.25
2023-02-26T00:24:54.463Z,2.72
2023-02-26T00:27:21.447Z,2.25
2023-02-26T00:29:49.079Z,2.45
2023-02-26T00:32:18.137Z,2.38
2023-02-26T00:34:49.223Z,2.72
2023-02-26T00:38:03.410Z,2.28
2023-02-26T00:40:43.498Z,2.20
2023-02-26T00:43:27.120Z,1.88
2023-02-26T00:46:06.431Z,2.03
2023-02-26T00:49:35.495Z,2.25
2023-02-26T00:52:10.616Z,1.98
2023-02-26T00:54:37.739Z,1.95
2023-02-26T00:57:05.861Z,2.10
2023-02-26T00:59:32.977Z,1.80
2023-02-26T01:02:01.822Z,1.85
2023-02-26T01:04:29.592Z,2.25
2023-02-26T01:06:58.503Z,1.65
2023-02-26T01:09:30.329Z,1.83
2023-02-26T01:12:01.998Z,1.75
2023-02-26T01:14:32.142Z,1.80
2023-02-26T01:17:46.570Z,2.05
2023-02-26T01:20:26.945Z,2.40
2023-02-26T01:23:16.728Z,1.90
2023-02-26T01:26:26.453Z,1.85
2023-02-26T01:28:54.530Z,2.15
2023-02-26T01:32:07.346Z,2.13
2023-02-26T01:34:42.081Z,1.85
2023-02-26T01:37:21.468Z,2.05
2023-02-26T01:40:17.984Z,1.88
2023-02-26T01:42:52.097Z,1.85
2023-02-26T01:45:31.397Z,2.15
2023-02-26T01:48:20.729Z,1.92
2023-02-26T01:50:47.634Z,1.83
2023-02-26T01:53:24.276Z,2.08
2023-02-26T01:56:18.051Z,2.10
2023-02-26T01:58:49.915Z,1.92
2023-02-26T02:01:16.792Z,1.90
2023-02-26T02:03:44.020Z,1.88
2023-02-26T02:06:25.369Z,1.90
2023-02-26T02:08:53.164Z,1.58
2023-02-26T02:11:20.861Z,1.80
2023-02-26T02:14:15.415Z,1.90
2023-02-26T02:17:12.577Z,1.70
2023-02-26T02:20:14.507Z,1.83
2023-02-26T02:22:56.345Z,1.85
2023-02-26T02:26:10.180Z,1.80
2023-02-26T02:28:51.413Z,1.77
2023-02-26T02:31:36.949Z,1.50
2023-02-26T02:34:36.971Z,1.70
2023-02-26T02:37:25.437Z,1.60
2023-02-26T02:40:08.147Z,1.58
2023-02-26T02:43:04.618Z,1.98
2023-02-26T02:46:03.757Z,1.98
2023-02-26T02:48:53.266Z,1.65
2023-02-26T02:51:32.714Z,1.73
2023-02-26T02:54:17.787Z,1.67
2023-02-26T02:57:09.367Z,2.22
2023-02-26T02:59:51.378Z,1.73
2023-02-26T03:02:36.586Z,1.48
2023-02-26T03:05:05.671Z,1.45
2023-02-26T03:07:41.769Z,1.70
2023-02-26T03:10:09.618Z,1.85
2023-02-26T03:12:37.126Z,1.58
2023-02-26T03:15:06.262Z,1.40
2023-02-26T03:17:50.262Z,1.90
2023-02-26T03:20:34.186Z,1.58
2023-02-26T03:23:19.644Z,1.65
2023-02-26T03:26:00.785Z,1.45
2023-02-26T03:29:32.440Z,2.05
2023-02-26T03:32:11.624Z,1.80
2023-02-26T03:35:13.102Z,1.58
2023-02-26T03:37:45.568Z,1.52
2023-02-26T03:40:31.536Z,1.65
2023-02-26T03:43:08.473Z,1.83
2023-02-26T03:45:40.971Z,1.58
2023-02-26T03:48:13.636Z,1.75
2023-02-26T03:50:51.421Z,1.73
2023-02-26T03:54:05.490Z,1.60
2023-02-26T03:56:43.032Z,1.70
2023-02-26T03:59:35.481Z,1.35
2023-02-26T04:02:41.875Z,1.67
2023-02-26T04:05:29.279Z,1.33
2023-02-26T04:07:58.119Z,1.58
2023-02-26T04:10:39.742Z,1.73
2023-02-26T04:13:07.651Z,1.60
2023-02-26T04:15:34.765Z,1.40
2023-02-26T04:18:01.785Z,1.65
2023-02-26T04:20:29.601Z,1.40
2023-02-26T04:22:56.559Z,1.67
2023-02-26T04:25:24.149Z,1.73
2023-02-26T04:27:52.747Z,1.60
2023-02-26T04:30:21.287Z,1.33
2023-02-26T04:32:48.624Z,1.67
2023-02-26T04:35:16.119Z,1.40
2023-02-26T04:37:42.996Z,1.50
2023-02-26T04:40:11.807Z,1.70
2023-02-26T04:42:39.276Z,1.60
2023-02-26T04:45:07.114Z,1.60
2023-02-26T04:47:37.065Z,1.23
2023-02-26T04:50:05.101Z,1.65
2023-02-26T04:52:32.277Z,1.77
2023-02-26T04:54:59.354Z,1.73
2023-02-26T04:57:26.827Z,1.30
2023-02-26T04:59:55.772Z,1.70
2023-02-26T05:02:27.373Z,1.23
2023-02-26T05:04:54.243Z,1.77
2023-02-26T05:07:21.115Z,1.83
2023-02-26T05:09:49.532Z,1.50
2023-02-26T05:12:16.446Z,1.35
2023-02-26T05:14:43.443Z,1.65
2023-02-26T05:17:10.334Z,1.45
2023-02-26T05:19:37.310Z,1.70
2023-02-26T05:22:05.124Z,1.50
2023-02-26T05:24:31.972Z,1.73
2023-02-26T05:27:00.310Z,1.60
2023-02-26T05:29:27.548Z,1.58
2023-02-26T05:31:55.451Z,2.00
2023-02-26T05:34:22.526Z,1.50
2023-02-26T05:36:49.407Z,2.95
2023-02-26T05:39:16.298Z,1.70
2023-02-26T05:41:43.269Z,1.60
2023-02-26T05:44:10.210Z,1.73
2023-02-26T05:46:37.227Z,1.70
2023-02-26T05:49:04.380Z,1.48
2023-02-26T05:51:31.517Z,1.50
2023-02-26T05:53:58.499Z,1.60
2023-02-26T05:56:25.714Z,1.45
2023-02-26T05:58:52.933Z,1.40
2023-02-26T06:01:20.846Z,1.90
2023-02-26T06:03:50.420Z,2.65
2023-02-26T06:06:18.494Z,2.83
2023-02-26T06:08:46.286Z,2.47
2023-02-26T06:11:14.044Z,2.40
2023-02-26T06:13:43.666Z,2.17
2023-02-26T06:16:10.604Z,1.70
2023-02-26T06:18:37.439Z,1.90
2023-02-26T06:21:04.700Z,2.00
2023-02-26T06:23:31.585Z,2.10
2023-02-26T06:25:59.828Z,1.95
2023-02-26T06:28:27.200Z,1.63
2023-02-26T06:30:54.789Z,1.65
2023-02-26T06:33:21.923Z,2.00
2023-02-26T06:35:49.593Z,2.15
2023-02-26T06:38:17.852Z,1.60
2023-02-26T06:41:37.657Z,1.85
2023-02-26T06:44:05.355Z,1.73
2023-02-26T06:46:32.704Z,1.60
2023-02-26T06:49:00.367Z,1.70
2023-02-26T06:51:31.169Z,1.60
2023-02-26T06:53:58.254Z,1.67
2023-02-26T06:56:25.827Z,1.40
2023-02-26T06:58:53.309Z,1.73
2023-02-26T07:01:20.577Z,1.52
2023-02-26T07:03:47.435Z,1.67
2023-02-26T07:06:26.911Z,1.65
2023-02-26T07:08:55.480Z,1.45
2023-02-26T07:11:22.861Z,1.67
2023-02-26T07:13:51.539Z,1.77
2023-02-26T07:16:18.993Z,1.98
2023-02-26T07:18:45.925Z,1.80
2023-02-26T07:21:12.812Z,1.50
2023-02-26T07:23:39.727Z,1.83
2023-02-26T07:26:07.308Z,1.50
2023-02-26T07:28:34.879Z,1.60
2023-02-26T07:31:01.797Z,1.58
2023-02-26T07:33:29.118Z,1.40
2023-02-26T07:35:56.083Z,1.63
2023-02-26T07:38:23.065Z,1.30
2023-02-26T07:40:50.032Z,1.48
2023-02-26T07:43:17.060Z,1.38
2023-02-26T07:45:43.921Z,1.40
2023-02-26T07:48:10.775Z,1.15
2023-02-26T07:50:37.759Z,1.30
2023-02-26T07:53:04.687Z,1.60
2023-02-26T07:55:31.598Z,1.60
2023-02-26T07:57:59.051Z,1.10
2023-02-26T08:00:26.015Z,1.50
2023-02-26T08:02:53.051Z,1.60
2023-02-26T08:05:20.087Z,1.30
2023-02-26T08:07:47.105Z,1.48
2023-02-26T08:10:15.295Z,1.40
2023-02-26T08:12:43.306Z,1.23
2023-02-26T08:15:13.180Z,1.20
2023-02-26T08:17:41.778Z,1.20
2023-02-26T08:20:10.125Z,1.67
2023-02-26T08:22:37.367Z,1.38
2023-02-26T08:25:04.881Z,1.95
2023-02-26T08:27:31.694Z,0.93
2023-02-26T08:29:58.661Z,1.50
2023-02-26T08:32:28.981Z,1.58
2023-02-26T08:34:55.902Z,1.25
2023-02-26T08:37:25.802Z,1.20
2023-02-26T08:39:56.108Z,1.45
2023-02-26T08:42:23.196Z,1.30
2023-02-26T08:44:50.419Z,1.30
2023-02-26T08:47:28.246Z,0.98
2023-02-26T08:49:55.898Z,1.00
2023-02-26T08:52:23.383Z,1.25
2023-02-26T08:54:50.673Z,1.20
2023-02-26T08:57:21.002Z,1.30
2023-02-26T08:59:48.334Z,0.90
2023-02-26T09:02:15.491Z,1.00
2023-02-26T09:04:42.652Z,1.48
2023-02-26T09:07:09.890Z,1.13
2023-02-26T09:09:37.029Z,1.13
2023-02-26T09:12:08.140Z,1.08
2023-02-26T09:14:38.542Z,0.98
2023-02-26T09:17:05.692Z,1.20
2023-02-26T09:19:40.488Z,1.00
2023-02-26T09:22:07.711Z,0.95
2023-02-26T09:27:29.737Z,1.38
2023-02-26T09:29:57.100Z,1.00
2023-02-26T09:32:36.672Z,1.00
2023-02-26T09:35:05.744Z,0.98
2023-02-26T09:41:31.282Z,0.65
2023-02-26T09:47:27.059Z,0.90
2023-02-26T09:50:26.388Z,1.00
2023-02-26T09:53:06.668Z,0.75
2023-02-26T09:55:50.119Z,0.82
2023-02-26T10:01:44.097Z,1.00
2023-02-26T10:04:59.845Z,0.73
2023-02-26T10:08:05.550Z,0.90
2023-02-26T10:11:11.722Z,0.88
2023-02-26T10:14:13.452Z,1.13
2023-02-26T10:16:47.692Z,0.90
2023-02-26T10:19:29.184Z,0.65
2023-02-26T10:22:53.561Z,0.90
2023-02-26T10:29:08.353Z,0.80
2023-02-26T10:32:26.419Z,1.10
2023-02-26T10:35:15.688Z,0.73
2023-02-26T10:38:04.546Z,1.20
2023-02-26T10:40:44.132Z,0.70
2023-02-26T10:43:27.264Z,1.20
2023-02-26T10:46:45.415Z,0.88
2023-02-26T10:49:52.887Z,0.80
2023-02-26T10:52:25.098Z,1.02
2023-02-26T10:55:26.286Z,1.05
2023-02-26T10:58:16.816Z,1.00
2023-02-26T11:00:53.791Z,1.00
2023-02-26T11:03:34.564Z,0.90
2023-02-26T11:06:04.708Z,0.90
2023-02-26T11:08:42.079Z,0.98
2023-02-26T11:11:09.588Z,0.90
2023-02-26T11:13:39.212Z,1.10
2023-02-26T11:16:15.669Z,1.30
2023-02-26T11:18:50.500Z,0.80
2023-02-26T11:21:26.847Z,1.10
2023-02-26T11:24:05.228Z,0.80
2023-02-26T11:26:36.818Z,0.93
2023-02-26T11:29:05.354Z,1.02
2023-02-26T11:31:33.524Z,0.85
2023-02-26T11:34:05.893Z,1.00
2023-02-26T11:36:37.712Z,0.77
2023-02-26T11:39:25.025Z,0.98
2023-02-26T11:41:58.129Z,0.55
2023-02-26T11:44:38.723Z,0.88
2023-02-26T11:47:13.710Z,0.80
2023-02-26T11:52:21.559Z,0.60
2023-02-26T11:54:56.222Z,0.60
2023-02-26T11:57:29.790Z,0.70
2023-02-26T12:00:00.373Z,0.70
2023-02-26T12:02:35.258Z,0.70
2023-02-26T12:05:07.047Z,0.63
2023-02-26T12:07:34.231Z,1.20
2023-02-26T12:10:01.535Z,1.17
2023-02-26T12:12:50.807Z,0.88
2023-02-26T12:15:39.078Z,0.80
2023-02-26T12:18:40.571Z,0.95
2023-02-26T12:21:44.552Z,0.70
2023-02-26T12:24:52.331Z,0.82
2023-02-26T12:28:16.972Z,0.95
2023-02-26T12:31:19.805Z,0.75
2023-02-26T12:34:32.304Z,0.85
2023-02-26T12:37:31.895Z,1.00
2023-02-26T12:40:30.731Z,0.70
2023-02-26T12:43:14.894Z,0.73
2023-02-26T12:46:08.579Z,0.50
2023-02-26T12:49:21.088Z,0.70
2023-02-26T12:52:40.732Z,0.80
2023-02-26T12:55:48.066Z,0.80
2023-02-26T12:58:45.983Z,0.65
2023-02-26T13:01:56.027Z,0.75
2023-02-26T13:05:00.166Z,1.10
2023-02-26T13:07:56.556Z,0.65
2023-02-26T13:11:03.889Z,0.60
2023-02-26T13:13:53.755Z,0.73
2023-02-26T13:16:45.664Z,0.68
2023-02-26T13:19:24.073Z,1.00
2023-02-26T13:22:00.842Z,1.00
2023-02-26T13:27:07.768Z,1.00
2023-02-26T13:29:48.396Z,0.80
2023-02-26T13:32:35.941Z,0.80
2023-02-26T13:35:28.048Z,0.52
2023-02-26T13:38:00.423Z,0.80
2023-02-26T13:41:13.280Z,1.08
2023-02-26T13:43:55.327Z,0.73
2023-02-26T13:46:55.667Z,0.52
2023-02-26T13:49:49.047Z,0.60
2023-02-26T13:52:32.776Z,0.82
2023-02-26T13:54:59.989Z,0.90
2023-02-26T13:57:36.725Z,0.85
2023-02-26T14:00:36.407Z,0.98
2023-02-26T14:03:50.378Z,0.60
2023-02-26T14:06:44.622Z,0.93
2023-02-26T14:09:23.724Z,0.77
2023-02-26T14:12:13.039Z,0.80
2023-02-26T14:14:43.979Z,0.77
2023-02-26T14:17:11.241Z,0.90
2023-02-26T14:19:54.061Z,0.70
2023-02-26T14:22:35.925Z,0.70
2023-02-26T14:25:14.846Z,1.10
2023-02-26T14:27:44.941Z,0.98
2023-02-26T14:30:11.765Z,0.63
2023-02-26T14:32:57.608Z,0.82
2023-02-26T14:35:35.109Z,0.80
2023-02-26T14:38:20.324Z,0.80
2023-02-26T14:40:54.295Z,1.13
2023-02-26T14:43:58.613Z,1.08
2023-02-26T14:46:26.117Z,0.88
2023-02-26T14:48:53.254Z,1.50
2023-02-26T14:51:54.700Z,1.17
2023-02-26T14:54:51.318Z,1.30
2023-02-26T14:57:51.669Z,1.73
2023-02-26T15:00:40.654Z,0.95
2023-02-26T15:03:23.061Z,0.82
2023-02-26T15:06:18.014Z,1.10
2023-02-26T15:09:21.747Z,0.80
2023-02-26T15:12:32.866Z,0.98
2023-02-26T15:15:33.354Z,0.82
2023-02-26T15:18:50.278Z,1.02
2023-02-26T15:21:20.810Z,0.93
2023-02-26T15:23:55.364Z,0.90
2023-02-26T15:26:29.602Z,0.88
2023-02-26T15:28:59.335Z,1.20
2023-02-26T15:31:40.204Z,1.15
2023-02-26T15:34:12.515Z,0.90
2023-02-26T15:36:45.990Z,1.08
2023-02-26T15:39:17.386Z,1.13
2023-02-26T15:41:50.162Z,0.85
2023-02-26T15:44:27.270Z,0.93
2023-02-26T15:47:01.274Z,0.85
2023-02-26T15:49:33.014Z,0.85
2023-02-26T15:52:02.743Z,0.90
2023-02-26T15:54:56.869Z,1.00
2023-02-26T15:57:26.870Z,1.40
2023-02-26T16:00:06.891Z,1.27
2023-02-26T16:02:41.104Z,1.05
2023-02-26T16:05:10.822Z,0.90
2023-02-26T16:07:37.730Z,1.30
2023-02-26T16:10:15.362Z,0.82
2023-02-26T16:12:49.064Z,1.95
2023-02-26T16:15:33.812Z,1.02
2023-02-26T16:18:06.983Z,1.20
2023-02-26T16:20:43.884Z,1.33
2023-02-26T16:23:20.020Z,1.00
2023-02-26T16:25:58.017Z,1.25
2023-02-26T16:28:35.063Z,1.40
2023-02-26T16:31:05.838Z,1.10
2023-02-26T16:33:34.511Z,1.30
2023-02-26T16:36:15.691Z,0.90
2023-02-26T16:38:50.034Z,1.10
2023-02-26T16:41:23.696Z,1.00
2023-02-26T16:43:57.418Z,1.20
2023-02-26T16:46:45.236Z,1.00
2023-02-26T16:49:26.075Z,1.30
2023-02-26T16:51:56.018Z,1.52
2023-02-26T16:54:28.261Z,1.15
2023-02-26T16:57:34.886Z,1.35
2023-02-26T17:00:09.467Z,1.25
2023-02-26T17:02:38.864Z,3.33
2023-02-26T17:05:26.341Z,0.90
2023-02-26T17:08:14.895Z,0.82
2023-02-26T17:10:54.086Z,1.35
2023-02-26T17:13:31.430Z,1.60
2023-02-26T17:16:10.588Z,1.73
2023-02-26T17:18:37.700Z,1.60
2023-02-26T17:21:05.663Z,1.50
2023-02-26T17:23:37.645Z,1.50
2023-02-26T17:26:06.195Z,1.67
2023-02-26T17:28:40.452Z,1.50
2023-02-26T17:31:08.538Z,1.67
2023-02-26T17:33:38.074Z,2.25
2023-02-26T17:36:05.819Z,3.78
2023-02-26T17:38:33.417Z,2.80
2023-02-26T17:41:00.757Z,2.55
2023-02-26T17:43:28.727Z,2.38
2023-02-26T17:45:56.047Z,3.00
2023-02-26T17:48:23.298Z,2.95
2023-02-26T17:50:58.265Z,3.17
2023-02-26T17:56:00.541Z,3.03
2023-02-26T17:58:33.919Z,2.83
2023-02-26T18:01:03.557Z,3.20
2023-02-26T18:03:30.820Z,3.58
2023-02-26T18:05:58.100Z,3.67
2023-02-26T18:08:31.873Z,3.95
2023-02-26T18:11:01.757Z,4.38
2023-02-26T18:13:30.558Z,3.92
2023-02-26T18:16:00.945Z,4.40
2023-02-26T18:18:29.638Z,3.80
2023-02-26T18:20:57.072Z,4.14
2023-02-26T18:23:25.512Z,3.88
2023-02-26T18:25:54.757Z,4.18
2023-02-26T18:28:28.325Z,4.30
2023-02-26T18:30:57.674Z,4.45
2023-02-26T18:33:28.206Z,4.70
2023-02-26T18:36:05.930Z,4.55
2023-02-26T18:38:34.517Z,5.38
2023-02-26T18:41:02.172Z,6.07
2023-02-26T18:43:29.936Z,6.47
2023-02-26T18:46:01.127Z,6.18
2023-02-26T18:48:28.695Z,5.90
2023-02-26T18:50:55.879Z,7.13
2023-02-26T18:53:23.929Z,6.63
2023-02-26T18:55:53.015Z,7.03
2023-02-26T18:58:22.060Z,5.97
2023-02-26T19:00:49.271Z,6.10
2023-02-26T19:03:16.402Z,5.97
2023-02-26T19:05:43.680Z,5.47
2023-02-26T19:08:11.628Z,4.85
2023-02-26T19:10:39.150Z,5.78
2023-02-26T19:13:06.329Z,4.78
2023-02-26T19:15:33.494Z,3.75
2023-02-26T19:18:00.770Z,4.13
2023-02-26T19:20:28.128Z,3.97
2023-02-26T19:22:55.615Z,3.58
2023-02-26T19:25:27.147Z,3.83
2023-02-26T19:27:55.825Z,3.60
2023-02-26T19:30:26.543Z,3.92
2023-02-26T19:32:54.947Z,3.95
2023-02-26T19:35:23.102Z,4.07
2023-02-26T19:37:50.288Z,3.85
2023-02-26T19:40:20.522Z,4.45
2023-02-26T19:42:48.460Z,4.22
2023-02-26T19:45:17.255Z,3.92
2023-02-26T19:47:45.415Z,3.60
2023-02-26T19:50:19.103Z,4.53
2023-02-26T19:52:46.683Z,3.72
2023-02-26T19:55:16.590Z,4.25
2023-02-26T19:57:44.387Z,4.85
2023-02-26T20:00:15.090Z,3.53
2023-02-26T20:02:43.439Z,3.72
2023-02-26T20:05:16.036Z,3.20
2023-02-26T20:07:48.228Z,3.00
2023-02-26T20:10:16.909Z,2.72
2023-02-26T20:12:45.820Z,3.20
2023-02-26T20:15:14.088Z,3.25
2023-02-26T20:17:41.747Z,2.72
2023-02-26T20:20:10.212Z,2.95
2023-02-26T20:22:40.344Z,2.80
2023-02-26T20:25:09.088Z,3.03
2023-02-26T20:27:39.254Z,3.90
2023-02-26T20:30:08.032Z,3.38
2023-02-26T20:32:35.488Z,3.30
2023-02-26T20:35:03.628Z,3.60
2023-02-26T20:37:31.764Z,3.78
2023-02-26T20:40:02.658Z,3.53
2023-02-26T20:42:30.333Z,3.15
2023-02-26T20:44:57.652Z,3.53
2023-02-26T20:47:24.776Z,3.88
2023-02-26T20:49:51.976Z,6.18
2023-02-26T20:52:19.232Z,4.80
2023-02-26T20:54:46.239Z,5.18
2023-02-26T20:57:13.283Z,15.40
2023-02-26T20:59:40.157Z,7.25
2023-02-26T21:02:07.755Z,5.05
2023-02-26T21:04:37.963Z,3.78
2023-02-26T21:07:17.546Z,3.55
2023-02-26T21:09:48.075Z,3.60
2023-02-26T21:12:16.894Z,3.58
2023-02-26T21:14:44.393Z,3.20
2023-02-26T21:17:11.711Z,3.63
2023-02-26T21:19:38.811Z,4.03
2023-02-26T21:22:05.822Z,3.72
2023-02-26T21:24:32.830Z,3.90
2023-02-26T21:26:59.926Z,4.32
2023-02-26T21:29:26.840Z,3.97
2023-02-26T21:31:56.970Z,3.83
2023-02-26T21:34:33.495Z,3.70
2023-02-26T21:37:11.868Z,3.28
2023-02-26T21:39:39.318Z,3.50
2023-02-26T21:42:08.975Z,2.97
2023-02-26T21:44:36.437Z,3.53
2023-02-26T21:47:04.199Z,2.78
2023-02-26T21:49:31.939Z,3.00
2023-02-26T21:52:01.868Z,2.60
2023-02-26T21:54:30.202Z,2.65
2023-02-26T21:56:57.638Z,3.20
2023-02-26T21:59:24.894Z,2.53
2023-02-26T22:01:53.394Z,2.38
2023-02-26T22:04:20.654Z,2.28
2023-02-26T22:06:47.804Z,2.38
2023-02-26T22:09:14.926Z,2.30
2023-02-26T22:11:41.817Z,2.15
2023-02-26T22:14:08.907Z,2.00
2023-02-26T22:16:35.905Z,2.10
2023-02-26T22:19:02.941Z,2.20
2023-02-26T22:21:29.915Z,2.20
2023-02-26T22:23:57.060Z,2.42
2023-02-26T22:26:24.402Z,2.70
2023-02-26T22:28:51.655Z,2.30
2023-02-26T22:31:19.062Z,2.55
2023-02-26T22:33:46.153Z,2.40
2023-02-26T22:36:13.389Z,2.20
2023-02-26T22:38:40.579Z,2.40
2023-02-26T22:41:07.574Z,2.78
2023-02-26T22:43:34.502Z,2.38
2023-02-26T22:46:01.920Z,2.70
2023-02-26T22:48:29.004Z,2.88
2023-02-26T22:50:56.082Z,2.60
2023-02-26T22:53:23.041Z,2.40
2023-02-26T22:55:53.686Z,3.05
2023-02-26T22:58:20.880Z,3.00
2023-02-26T23:00:48.011Z,2.92
2023-02-26T23:03:15.246Z,3.22
2023-02-26T23:05:42.229Z,3.60
2023-02-26T23:08:09.600Z,3.53
2023-02-26T23:10:36.833Z,3.75
2023-02-26T23:13:04.076Z,3.83
2023-02-26T23:15:31.199Z,3.60
2023-02-26T23:17:58.344Z,3.60
2023-02-26T23:20:25.526Z,3.55
2023-02-26T23:22:52.496Z,3.00
2023-02-26T23:25:19.628Z,2.95
2023-02-26T23:27:46.921Z,2.95
2023-02-26T23:30:14.643Z,2.83
2023-02-26T23:32:41.860Z,2.83
2023-02-26T23:35:09.748Z,2.50
2023-02-26T23:37:36.760Z,2.83
2023-02-26T23:40:04.424Z,2.47
2023-02-26T23:42:31.494Z,2.90
2023-02-26T23:44:58.493Z,3.42
2023-02-26T23:47:25.562Z,2.30
2023-02-26T23:49:52.715Z,2.50
2023-02-26T23:52:20.072Z,2.30
2023-02-26T23:54:47.061Z,2.33
2023-02-26T23:57:14.276Z,2.45
2023-02-26T23:59:41.205Z,1.90
